Terminal Aerodrome Forecast
Issued by NWS

Home | Current Version | Previous Version | Text Only | Print | Product List | Glossary On
Versions: 1 2 3 4 5 6 7 8 9 10 11 12 13 14 15 16
378
FTUS41 KBTV 301724
TAFMPV
TAF
KMPV 301724Z 3018/3118 35008KT P6SM FEW200
     FM302300 02004KT P6SM BKN200
     FM311000 00000KT 4SM -SN BR OVC045
     FM311400 15006KT 2SM -SN BR OVC035=

USA.gov is the U.S. government's official web portal to all federal, state and local government web resources and services.